sensor_id;sensor_type;location;lat;lon;timestamp;temperature;humidity
423;DHT22;198;48.752;9.180;2022-08-14T00:01:05;21.10;50.70
423;DHT22;198;48.752;9.180;2022-08-14T00:03:31;21.00;50.60
423;DHT22;198;48.752;9.180;2022-08-14T00:05:59;21.00;50.60
423;DHT22;198;48.752;9.180;2022-08-14T00:08:25;20.90;50.70
423;DHT22;198;48.752;9.180;2022-08-14T00:10:51;20.90;50.90
423;DHT22;198;48.752;9.180;2022-08-14T00:13:21;20.80;50.70
423;DHT22;198;48.752;9.180;2022-08-14T00:15:50;20.80;50.90
423;DHT22;198;48.752;9.180;2022-08-14T00:18:19;20.80;51.00
423;DHT22;198;48.752;9.180;2022-08-14T00:20:46;20.70;51.20
423;DHT22;198;48.752;9.180;2022-08-14T00:23:13;20.70;50.90
423;DHT22;198;48.752;9.180;2022-08-14T00:25:40;20.70;51.90
423;DHT22;198;48.752;9.180;2022-08-14T00:28:08;20.60;51.10
423;DHT22;198;48.752;9.180;2022-08-14T00:30:34;20.60;51.00
423;DHT22;198;48.752;9.180;2022-08-14T00:33:00;20.60;51.50
423;DHT22;198;48.752;9.180;2022-08-14T00:35:25;20.60;50.70
423;DHT22;198;48.752;9.180;2022-08-14T00:37:51;20.60;50.40
423;DHT22;198;48.752;9.180;2022-08-14T00:40:18;20.60;49.90
423;DHT22;198;48.752;9.180;2022-08-14T00:42:44;20.60;50.30
423;DHT22;198;48.752;9.180;2022-08-14T00:45:12;20.50;51.30
423;DHT22;198;48.752;9.180;2022-08-14T00:47:39;20.50;51.70
423;DHT22;198;48.752;9.180;2022-08-14T00:50:07;20.40;52.30
423;DHT22;198;48.752;9.180;2022-08-14T00:52:33;20.40;52.30
423;DHT22;198;48.752;9.180;2022-08-14T00:54:59;20.40;52.70
423;DHT22;198;48.752;9.180;2022-08-14T00:57:27;20.30;51.90
423;DHT22;198;48.752;9.180;2022-08-14T00:59:53;20.30;52.40
423;DHT22;198;48.752;9.180;2022-08-14T01:02:21;20.20;52.60
423;DHT22;198;48.752;9.180;2022-08-14T01:04:55;20.20;52.30
423;DHT22;198;48.752;9.180;2022-08-14T01:07:23;20.20;52.60
423;DHT22;198;48.752;9.180;2022-08-14T01:09:54;20.10;53.20
423;DHT22;198;48.752;9.180;2022-08-14T01:12:21;20.10;53.90
423;DHT22;198;48.752;9.180;2022-08-14T01:14:47;20.10;53.60
423;DHT22;198;48.752;9.180;2022-08-14T01:17:20;20.10;52.30
423;DHT22;198;48.752;9.180;2022-08-14T01:19:46;20.10;51.40
423;DHT22;198;48.752;9.180;2022-08-14T01:22:30;20.00;51.40
423;DHT22;198;48.752;9.180;2022-08-14T01:24:56;20.00;51.40
423;DHT22;198;48.752;9.180;2022-08-14T01:27:22;20.00;51.20
423;DHT22;198;48.752;9.180;2022-08-14T01:29:51;20.00;52.10
423;DHT22;198;48.752;9.180;2022-08-14T01:32:18;19.90;51.30
423;DHT22;198;48.752;9.180;2022-08-14T01:34:48;20.00;51.20
423;DHT22;198;48.752;9.180;2022-08-14T01:37:13;20.00;51.20
423;DHT22;198;48.752;9.180;2022-08-14T01:39:40;20.00;51.40
423;DHT22;198;48.752;9.180;2022-08-14T01:42:05;20.10;51.00
423;DHT22;198;48.752;9.180;2022-08-14T01:44:31;20.10;52.10
423;DHT22;198;48.752;9.180;2022-08-14T01:46:58;20.10;51.70
423;DHT22;198;48.752;9.180;2022-08-14T01:49:27;20.00;52.30
423;DHT22;198;48.752;9.180;2022-08-14T01:51:52;20.00;52.80
423;DHT22;198;48.752;9.180;2022-08-14T01:54:22;20.00;52.50
423;DHT22;198;48.752;9.180;2022-08-14T01:56:53;20.00;51.80
423;DHT22;198;48.752;9.180;2022-08-14T01:59:24;20.00;51.50
423;DHT22;198;48.752;9.180;2022-08-14T02:01:52;20.00;51.50
423;DHT22;198;48.752;9.180;2022-08-14T02:04:19;20.00;51.70
423;DHT22;198;48.752;9.180;2022-08-14T02:06:46;19.90;52.20
423;DHT22;198;48.752;9.180;2022-08-14T02:09:11;19.90;52.60
423;DHT22;198;48.752;9.180;2022-08-14T02:11:37;19.90;52.90
423;DHT22;198;48.752;9.180;2022-08-14T02:14:08;19.80;51.90
423;DHT22;198;48.752;9.180;2022-08-14T02:16:38;19.70;51.80
423;DHT22;198;48.752;9.180;2022-08-14T02:19:07;19.70;52.30
423;DHT22;198;48.752;9.180;2022-08-14T02:21:34;19.70;52.10
423;DHT22;198;48.752;9.180;2022-08-14T02:24:02;19.80;52.00
423;DHT22;198;48.752;9.180;2022-08-14T02:26:30;19.80;52.20
423;DHT22;198;48.752;9.180;2022-08-14T02:29:04;19.70;51.90
423;DHT22;198;48.752;9.180;2022-08-14T02:31:33;19.70;52.20
423;DHT22;198;48.752;9.180;2022-08-14T02:34:03;19.70;52.30
423;DHT22;198;48.752;9.180;2022-08-14T02:36:29;19.60;52.70
423;DHT22;198;48.752;9.180;2022-08-14T02:38:54;19.50;53.00
423;DHT22;198;48.752;9.180;2022-08-14T02:41:21;19.50;53.10
423;DHT22;198;48.752;9.180;2022-08-14T02:43:47;19.50;53.30
423;DHT22;198;48.752;9.180;2022-08-14T02:46:13;19.30;53.60
423;DHT22;198;48.752;9.180;2022-08-14T02:48:41;19.30;54.00
423;DHT22;198;48.752;9.180;2022-08-14T02:51:10;19.20;55.00
423;DHT22;198;48.752;9.180;2022-08-14T02:53:39;19.20;54.70
423;DHT22;198;48.752;9.180;2022-08-14T02:56:07;19.20;55.10
423;DHT22;198;48.752;9.180;2022-08-14T02:58:36;19.20;54.90
423;DHT22;198;48.752;9.180;2022-08-14T03:01:06;19.10;55.00
423;DHT22;198;48.752;9.180;2022-08-14T03:03:33;19.10;54.90
423;DHT22;198;48.752;9.180;2022-08-14T03:06:02;19.10;54.60
423;DHT22;198;48.752;9.180;2022-08-14T03:08:29;19.10;54.30
423;DHT22;198;48.752;9.180;2022-08-14T03:11:02;19.10;54.10
423;DHT22;198;48.752;9.180;2022-08-14T03:13:31;19.10;54.40
423;DHT22;198;48.752;9.180;2022-08-14T03:16:00;19.10;54.60
423;DHT22;198;48.752;9.180;2022-08-14T03:18:26;19.10;54.80
423;DHT22;198;48.752;9.180;2022-08-14T03:20:52;19.10;54.90
423;DHT22;198;48.752;9.180;2022-08-14T03:23:18;19.10;54.90
423;DHT22;198;48.752;9.180;2022-08-14T03:25:44;19.10;54.70
423;DHT22;198;48.752;9.180;2022-08-14T03:28:11;19.00;54.80
423;DHT22;198;48.752;9.180;2022-08-14T03:30:37;19.00;54.90
423;DHT22;198;48.752;9.180;2022-08-14T03:33:03;19.00;54.90
423;DHT22;198;48.752;9.180;2022-08-14T03:35:30;18.90;54.80
423;DHT22;198;48.752;9.180;2022-08-14T03:38:04;18.90;55.10
423;DHT22;198;48.752;9.180;2022-08-14T03:40:29;18.90;55.90
423;DHT22;198;48.752;9.180;2022-08-14T03:42:55;18.90;55.60
423;DHT22;198;48.752;9.180;2022-08-14T03:45:20;18.80;55.30
423;DHT22;198;48.752;9.180;2022-08-14T03:47:49;18.80;55.40
423;DHT22;198;48.752;9.180;2022-08-14T03:50:15;18.80;56.10
423;DHT22;198;48.752;9.180;2022-08-14T03:52:40;18.70;56.20
423;DHT22;198;48.752;9.180;2022-08-14T03:55:10;18.70;56.30
423;DHT22;198;48.752;9.180;2022-08-14T03:57:38;18.80;55.80
423;DHT22;198;48.752;9.180;2022-08-14T04:00:09;18.70;55.80
423;DHT22;198;48.752;9.180;2022-08-14T04:02:36;18.70;56.00
423;DHT22;198;48.752;9.180;2022-08-14T04:05:07;18.70;55.90
423;DHT22;198;48.752;9.180;2022-08-14T04:07:33;18.80;55.80
423;DHT22;198;48.752;9.180;2022-08-14T04:09:59;18.80;55.90
423;DHT22;198;48.752;9.180;2022-08-14T04:12:25;18.80;55.90
423;DHT22;198;48.752;9.180;2022-08-14T04:14:51;18.80;55.80
423;DHT22;198;48.752;9.180;2022-08-14T04:17:18;18.80;56.70
423;DHT22;198;48.752;9.180;2022-08-14T04:19:44;18.80;57.20
423;DHT22;198;48.752;9.180;2022-08-14T04:22:10;18.80;56.80
423;DHT22;198;48.752;9.180;2022-08-14T04:24:36;18.70;57.10
423;DHT22;198;48.752;9.180;2022-08-14T04:27:02;18.70;56.90
423;DHT22;198;48.752;9.180;2022-08-14T04:29:28;18.70;56.80
423;DHT22;198;48.752;9.180;2022-08-14T04:31:53;18.60;56.90
423;DHT22;198;48.752;9.180;2022-08-14T04:34:19;18.60;56.80
423;DHT22;198;48.752;9.180;2022-08-14T04:36:45;18.70;57.00
423;DHT22;198;48.752;9.180;2022-08-14T04:39:29;18.70;56.60
423;DHT22;198;48.752;9.180;2022-08-14T04:42:13;18.80;56.40
423;DHT22;198;48.752;9.180;2022-08-14T04:44:57;18.90;56.20
423;DHT22;198;48.752;9.180;2022-08-14T04:47:22;18.90;56.30
423;DHT22;198;48.752;9.180;2022-08-14T04:50:06;19.00;56.10
423;DHT22;198;48.752;9.180;2022-08-14T04:52:32;19.00;55.70
423;DHT22;198;48.752;9.180;2022-08-14T04:54:57;19.10;55.60
423;DHT22;198;48.752;9.180;2022-08-14T04:57:23;19.20;55.30
423;DHT22;198;48.752;9.180;2022-08-14T04:59:49;19.30;55.90
423;DHT22;198;48.752;9.180;2022-08-14T05:02:17;19.40;55.40
423;DHT22;198;48.752;9.180;2022-08-14T05:04:43;19.50;55.40
423;DHT22;198;48.752;9.180;2022-08-14T05:07:08;19.60;55.30
423;DHT22;198;48.752;9.180;2022-08-14T05:09:34;19.70;55.20
423;DHT22;198;48.752;9.180;2022-08-14T05:11:59;19.70;55.30
423;DHT22;198;48.752;9.180;2022-08-14T05:14:25;19.80;55.10
423;DHT22;198;48.752;9.180;2022-08-14T05:16:52;19.90;55.00
423;DHT22;198;48.752;9.180;2022-08-14T05:19:18;20.00;55.30
423;DHT22;198;48.752;9.180;2022-08-14T05:21:43;20.10;54.60
423;DHT22;198;48.752;9.180;2022-08-14T05:24:09;20.10;54.70
423;DHT22;198;48.752;9.180;2022-08-14T05:26:38;20.10;54.90
423;DHT22;198;48.752;9.180;2022-08-14T05:29:08;20.10;55.10
423;DHT22;198;48.752;9.180;2022-08-14T05:31:34;20.20;55.60
423;DHT22;198;48.752;9.180;2022-08-14T05:34:02;20.20;55.50
423;DHT22;198;48.752;9.180;2022-08-14T05:36:28;20.30;54.30
423;DHT22;198;48.752;9.180;2022-08-14T05:38:54;20.30;54.60
423;DHT22;198;48.752;9.180;2022-08-14T05:41:20;20.40;52.60
423;DHT22;198;48.752;9.180;2022-08-14T05:43:46;20.50;52.20
423;DHT22;198;48.752;9.180;2022-08-14T05:46:14;20.60;51.80
423;DHT22;198;48.752;9.180;2022-08-14T05:48:49;20.70;51.60
423;DHT22;198;48.752;9.180;2022-08-14T05:51:15;20.70;51.20
423;DHT22;198;48.752;9.180;2022-08-14T05:53:40;20.80;51.20
423;DHT22;198;48.752;9.180;2022-08-14T05:56:06;20.80;51.10
423;DHT22;198;48.752;9.180;2022-08-14T05:58:32;20.80;51.30
423;DHT22;198;48.752;9.180;2022-08-14T06:00:57;20.80;51.40
423;DHT22;198;48.752;9.180;2022-08-14T06:03:23;20.90;51.20
423;DHT22;198;48.752;9.180;2022-08-14T06:05:51;21.00;51.10
423;DHT22;198;48.752;9.180;2022-08-14T06:08:29;21.00;50.80
423;DHT22;198;48.752;9.180;2022-08-14T06:10:57;21.00;51.70
423;DHT22;198;48.752;9.180;2022-08-14T06:13:30;21.10;53.50
423;DHT22;198;48.752;9.180;2022-08-14T06:15:57;21.10;53.30
423;DHT22;198;48.752;9.180;2022-08-14T06:18:23;21.00;54.40
423;DHT22;198;48.752;9.180;2022-08-14T06:20:49;20.80;54.60
423;DHT22;198;48.752;9.180;2022-08-14T06:23:15;20.70;55.20
423;DHT22;198;48.752;9.180;2022-08-14T06:25:40;20.70;55.60
423;DHT22;198;48.752;9.180;2022-08-14T06:28:06;20.80;55.00
423;DHT22;198;48.752;9.180;2022-08-14T06:30:33;20.90;55.00
423;DHT22;198;48.752;9.180;2022-08-14T06:32:59;20.90;54.10
423;DHT22;198;48.752;9.180;2022-08-14T06:35:24;21.00;54.20
423;DHT22;198;48.752;9.180;2022-08-14T06:37:59;21.10;53.40
423;DHT22;198;48.752;9.180;2022-08-14T06:40:33;21.10;53.10
423;DHT22;198;48.752;9.180;2022-08-14T06:43:01;21.20;52.80
423;DHT22;198;48.752;9.180;2022-08-14T06:45:27;21.30;52.60
423;DHT22;198;48.752;9.180;2022-08-14T06:47:53;21.30;52.30
423;DHT22;198;48.752;9.180;2022-08-14T06:50:21;21.40;51.60
423;DHT22;198;48.752;9.180;2022-08-14T06:52:47;21.50;50.90
423;DHT22;198;48.752;9.180;2022-08-14T06:55:14;21.70;50.50
423;DHT22;198;48.752;9.180;2022-08-14T06:57:43;21.80;50.00
423;DHT22;198;48.752;9.180;2022-08-14T07:00:19;21.80;49.10
423;DHT22;198;48.752;9.180;2022-08-14T07:02:45;21.90;48.80
423;DHT22;198;48.752;9.180;2022-08-14T07:05:29;21.90;49.10
423;DHT22;198;48.752;9.180;2022-08-14T07:08:17;22.10;49.60
423;DHT22;198;48.752;9.180;2022-08-14T07:10:53;22.20;49.90
423;DHT22;198;48.752;9.180;2022-08-14T07:13:19;22.30;49.90
423;DHT22;198;48.752;9.180;2022-08-14T07:15:49;22.40;48.90
423;DHT22;198;48.752;9.180;2022-08-14T07:18:34;22.40;48.30
423;DHT22;198;48.752;9.180;2022-08-14T07:21:01;22.40;48.40
423;DHT22;198;48.752;9.180;2022-08-14T07:23:27;22.40;48.90
423;DHT22;198;48.752;9.180;2022-08-14T07:25:55;22.50;48.50
423;DHT22;198;48.752;9.180;2022-08-14T07:28:33;22.60;48.60
423;DHT22;198;48.752;9.180;2022-08-14T07:31:00;22.70;48.50
423;DHT22;198;48.752;9.180;2022-08-14T07:33:29;22.70;48.00
423;DHT22;198;48.752;9.180;2022-08-14T07:35:56;22.80;48.20
423;DHT22;198;48.752;9.180;2022-08-14T07:38:23;22.90;47.90
423;DHT22;198;48.752;9.180;2022-08-14T07:40:50;22.90;47.10
423;DHT22;198;48.752;9.180;2022-08-14T07:43:16;22.90;46.40
423;DHT22;198;48.752;9.180;2022-08-14T07:45:42;23.00;46.40
423;DHT22;198;48.752;9.180;2022-08-14T07:48:08;23.10;46.20
423;DHT22;198;48.752;9.180;2022-08-14T07:50:34;23.20;46.70
423;DHT22;198;48.752;9.180;2022-08-14T07:53:00;23.30;47.70
423;DHT22;198;48.752;9.180;2022-08-14T07:55:26;23.40;48.00
423;DHT22;198;48.752;9.180;2022-08-14T07:57:51;23.50;47.50
423;DHT22;198;48.752;9.180;2022-08-14T08:00:19;23.60;46.40
423;DHT22;198;48.752;9.180;2022-08-14T08:02:47;23.80;46.60
423;DHT22;198;48.752;9.180;2022-08-14T08:05:15;23.90;47.30
423;DHT22;198;48.752;9.180;2022-08-14T08:07:41;24.00;47.30
423;DHT22;198;48.752;9.180;2022-08-14T08:10:13;24.10;46.00
423;DHT22;198;48.752;9.180;2022-08-14T08:15:30;24.30;46.10
423;DHT22;198;48.752;9.180;2022-08-14T08:17:57;24.40;45.50
423;DHT22;198;48.752;9.180;2022-08-14T08:20:24;24.60;45.30
423;DHT22;198;48.752;9.180;2022-08-14T08:22:51;24.60;45.70
423;DHT22;198;48.752;9.180;2022-08-14T08:25:18;24.80;44.10
423;DHT22;198;48.752;9.180;2022-08-14T08:27:59;24.90;43.80
423;DHT22;198;48.752;9.180;2022-08-14T08:30:26;25.00;43.40
423;DHT22;198;48.752;9.180;2022-08-14T08:32:53;25.00;43.40
423;DHT22;198;48.752;9.180;2022-08-14T08:35:21;25.00;43.60
423;DHT22;198;48.752;9.180;2022-08-14T08:37:49;25.20;44.20
423;DHT22;198;48.752;9.180;2022-08-14T08:40:26;25.20;43.60
423;DHT22;198;48.752;9.180;2022-08-14T08:42:51;25.30;42.50
423;DHT22;198;48.752;9.180;2022-08-14T08:45:18;25.40;42.90
423;DHT22;198;48.752;9.180;2022-08-14T08:47:45;25.50;42.00
423;DHT22;198;48.752;9.180;2022-08-14T08:50:20;25.50;40.90
423;DHT22;198;48.752;9.180;2022-08-14T08:52:51;25.50;42.70
423;DHT22;198;48.752;9.180;2022-08-14T08:58:01;25.70;41.80
423;DHT22;198;48.752;9.180;2022-08-14T09:00:30;25.80;41.20
423;DHT22;198;48.752;9.180;2022-08-14T09:02:59;25.90;39.90
423;DHT22;198;48.752;9.180;2022-08-14T09:05:26;26.10;41.20
423;DHT22;198;48.752;9.180;2022-08-14T09:07:51;26.20;40.80
423;DHT22;198;48.752;9.180;2022-08-14T09:10:17;26.40;40.00
423;DHT22;198;48.752;9.180;2022-08-14T09:12:44;26.60;40.30
423;DHT22;198;48.752;9.180;2022-08-14T09:15:10;26.80;39.70
423;DHT22;198;48.752;9.180;2022-08-14T09:17:36;27.00;39.40
423;DHT22;198;48.752;9.180;2022-08-14T09:20:03;27.20;38.80
423;DHT22;198;48.752;9.180;2022-08-14T09:22:29;27.50;39.00
423;DHT22;198;48.752;9.180;2022-08-14T09:24:56;27.70;38.00
423;DHT22;198;48.752;9.180;2022-08-14T09:27:22;28.00;38.30
423;DHT22;198;48.752;9.180;2022-08-14T09:29:47;28.30;38.60
423;DHT22;198;48.752;9.180;2022-08-14T09:32:18;28.70;37.90
423;DHT22;198;48.752;9.180;2022-08-14T09:37:39;29.30;35.70
423;DHT22;198;48.752;9.180;2022-08-14T09:45:44;30.80;34.00
423;DHT22;198;48.752;9.180;2022-08-14T09:48:16;31.50;33.20
423;DHT22;198;48.752;9.180;2022-08-14T09:50:51;32.40;32.50
423;DHT22;198;48.752;9.180;2022-08-14T09:53:39;33.40;31.30
423;DHT22;198;48.752;9.180;2022-08-14T09:56:09;34.90;30.00
423;DHT22;198;48.752;9.180;2022-08-14T09:58:38;36.40;29.20
423;DHT22;198;48.752;9.180;2022-08-14T10:01:14;37.80;27.60
423;DHT22;198;48.752;9.180;2022-08-14T10:03:51;38.70;26.10
423;DHT22;198;48.752;9.180;2022-08-14T10:06:22;40.00;25.30
423;DHT22;198;48.752;9.180;2022-08-14T10:11:23;43.30;24.30
423;DHT22;198;48.752;9.180;2022-08-14T10:13:51;44.90;23.30
423;DHT22;198;48.752;9.180;2022-08-14T10:16:20;45.30;22.10
423;DHT22;198;48.752;9.180;2022-08-14T10:18:49;46.60;21.90
423;DHT22;198;48.752;9.180;2022-08-14T10:21:25;48.00;20.40
423;DHT22;198;48.752;9.180;2022-08-14T10:23:50;47.70;19.80
423;DHT22;198;48.752;9.180;2022-08-14T10:26:18;48.00;20.20
423;DHT22;198;48.752;9.180;2022-08-14T10:28:46;48.80;19.70
423;DHT22;198;48.752;9.180;2022-08-14T10:31:30;49.90;19.00
423;DHT22;198;48.752;9.180;2022-08-14T10:34:08;50.30;18.80
423;DHT22;198;48.752;9.180;2022-08-14T10:36:37;51.00;18.00
423;DHT22;198;48.752;9.180;2022-08-14T10:41:41;52.90;17.30
423;DHT22;198;48.752;9.180;2022-08-14T10:44:12;53.00;17.20
423;DHT22;198;48.752;9.180;2022-08-14T10:46:45;53.30;16.70
423;DHT22;198;48.752;9.180;2022-08-14T10:49:22;54.10;16.90
423;DHT22;198;48.752;9.180;2022-08-14T10:52:09;54.90;16.60
423;DHT22;198;48.752;9.180;2022-08-14T10:59:42;56.40;16.30
423;DHT22;198;48.752;9.180;2022-08-14T11:02:22;56.50;15.80
423;DHT22;198;48.752;9.180;2022-08-14T11:05:13;57.00;16.10
423;DHT22;198;48.752;9.180;2022-08-14T11:07:52;57.10;15.40
423;DHT22;198;48.752;9.180;2022-08-14T11:10:19;57.00;15.70
423;DHT22;198;48.752;9.180;2022-08-14T11:12:47;56.60;15.70
423;DHT22;198;48.752;9.180;2022-08-14T11:15:18;57.00;15.80
423;DHT22;198;48.752;9.180;2022-08-14T11:17:44;57.10;15.50
423;DHT22;198;48.752;9.180;2022-08-14T11:20:16;57.40;15.40
423;DHT22;198;48.752;9.180;2022-08-14T11:22:43;56.60;15.10
423;DHT22;198;48.752;9.180;2022-08-14T11:25:14;56.40;15.60
423;DHT22;198;48.752;9.180;2022-08-14T11:27:42;56.50;16.00
423;DHT22;198;48.752;9.180;2022-08-14T11:30:14;56.60;16.00
423;DHT22;198;48.752;9.180;2022-08-14T11:32:43;57.00;15.50
423;DHT22;198;48.752;9.180;2022-08-14T11:35:16;58.00;16.10
423;DHT22;198;48.752;9.180;2022-08-14T11:40:19;59.50;15.20
423;DHT22;198;48.752;9.180;2022-08-14T11:42:49;58.40;14.80
423;DHT22;198;48.752;9.180;2022-08-14T11:45:19;57.20;15.00
423;DHT22;198;48.752;9.180;2022-08-14T11:47:44;55.70;15.00
423;DHT22;198;48.752;9.180;2022-08-14T11:50:12;55.60;15.30
423;DHT22;198;48.752;9.180;2022-08-14T11:52:37;55.80;15.70
423;DHT22;198;48.752;9.180;2022-08-14T11:55:07;55.90;15.50
423;DHT22;198;48.752;9.180;2022-08-14T11:57:33;55.80;15.10
423;DHT22;198;48.752;9.180;2022-08-14T12:00:03;56.20;15.50
423;DHT22;198;48.752;9.180;2022-08-14T12:02:30;57.20;15.30
423;DHT22;198;48.752;9.180;2022-08-14T12:04:55;57.20;15.90
423;DHT22;198;48.752;9.180;2022-08-14T12:07:21;58.20;15.00
423;DHT22;198;48.752;9.180;2022-08-14T12:09:51;59.10;14.90
423;DHT22;198;48.752;9.180;2022-08-14T12:12:22;58.90;14.50
423;DHT22;198;48.752;9.180;2022-08-14T12:17:16;57.20;14.20
423;DHT22;198;48.752;9.180;2022-08-14T12:19:54;55.90;14.60
423;DHT22;198;48.752;9.180;2022-08-14T12:22:40;56.30;14.80
423;DHT22;198;48.752;9.180;2022-08-14T12:25:08;56.70;14.90
423;DHT22;198;48.752;9.180;2022-08-14T12:27:40;56.50;14.50
423;DHT22;198;48.752;9.180;2022-08-14T12:30:07;56.10;15.30
423;DHT22;198;48.752;9.180;2022-08-14T12:32:43;56.60;15.40
423;DHT22;198;48.752;9.180;2022-08-14T12:35:11;56.80;14.60
423;DHT22;198;48.752;9.180;2022-08-14T12:37:45;56.80;14.90
423;DHT22;198;48.752;9.180;2022-08-14T12:40:13;57.00;14.90
423;DHT22;198;48.752;9.180;2022-08-14T12:42:39;56.50;14.50
423;DHT22;198;48.752;9.180;2022-08-14T12:45:06;56.50;14.60
423;DHT22;198;48.752;9.180;2022-08-14T12:47:32;56.50;14.50
423;DHT22;198;48.752;9.180;2022-08-14T12:49:58;56.60;14.80
423;DHT22;198;48.752;9.180;2022-08-14T12:54:58;58.00;14.40
423;DHT22;198;48.752;9.180;2022-08-14T12:57:41;57.80;14.30
423;DHT22;198;48.752;9.180;2022-08-14T13:00:15;57.10;14.70
423;DHT22;198;48.752;9.180;2022-08-14T13:02:42;56.60;14.40
423;DHT22;198;48.752;9.180;2022-08-14T13:05:09;56.00;14.40
423;DHT22;198;48.752;9.180;2022-08-14T13:07:37;55.70;14.40
423;DHT22;198;48.752;9.180;2022-08-14T13:10:05;56.40;14.40
423;DHT22;198;48.752;9.180;2022-08-14T13:12:31;56.70;14.10
423;DHT22;198;48.752;9.180;2022-08-14T13:14:58;56.40;14.30
423;DHT22;198;48.752;9.180;2022-08-14T13:17:25;55.30;14.30
423;DHT22;198;48.752;9.180;2022-08-14T13:19:56;55.00;14.50
423;DHT22;198;48.752;9.180;2022-08-14T13:22:25;55.00;15.50
423;DHT22;198;48.752;9.180;2022-08-14T13:24:53;55.80;14.70
423;DHT22;198;48.752;9.180;2022-08-14T13:27:21;56.80;14.40
423;DHT22;198;48.752;9.180;2022-08-14T13:29:50;57.00;14.00
423;DHT22;198;48.752;9.180;2022-08-14T13:32:17;56.70;14.60
423;DHT22;198;48.752;9.180;2022-08-14T13:34:46;57.10;14.00
423;DHT22;198;48.752;9.180;2022-08-14T13:37:16;57.30;13.60
423;DHT22;198;48.752;9.180;2022-08-14T13:39:46;57.20;13.70
423;DHT22;198;48.752;9.180;2022-08-14T13:42:16;56.70;13.80
423;DHT22;198;48.752;9.180;2022-08-14T13:44:43;56.50;14.80
423;DHT22;198;48.752;9.180;2022-08-14T13:47:12;56.50;14.00
423;DHT22;198;48.752;9.180;2022-08-14T13:49:39;56.70;13.90
423;DHT22;198;48.752;9.180;2022-08-14T13:52:05;57.00;14.10
423;DHT22;198;48.752;9.180;2022-08-14T13:54:33;56.40;13.80
423;DHT22;198;48.752;9.180;2022-08-14T13:57:00;55.90;13.90
423;DHT22;198;48.752;9.180;2022-08-14T13:59:28;55.50;14.00
423;DHT22;198;48.752;9.180;2022-08-14T14:02:01;54.80;14.10
423;DHT22;198;48.752;9.180;2022-08-14T14:04:29;54.50;13.80
423;DHT22;198;48.752;9.180;2022-08-14T14:06:56;55.10;14.10
423;DHT22;198;48.752;9.180;2022-08-14T14:09:27;55.70;13.80
423;DHT22;198;48.752;9.180;2022-08-14T14:11:53;55.50;13.80
423;DHT22;198;48.752;9.180;2022-08-14T14:14:22;55.20;13.90
423;DHT22;198;48.752;9.180;2022-08-14T14:16:49;54.60;14.20
423;DHT22;198;48.752;9.180;2022-08-14T14:19:17;53.60;14.60
423;DHT22;198;48.752;9.180;2022-08-14T14:21:43;53.10;14.70
423;DHT22;198;48.752;9.180;2022-08-14T14:24:09;52.80;14.80
423;DHT22;198;48.752;9.180;2022-08-14T14:26:34;52.70;14.70
423;DHT22;198;48.752;9.180;2022-08-14T14:29:00;52.90;14.70
423;DHT22;198;48.752;9.180;2022-08-14T14:31:28;52.60;14.40
423;DHT22;198;48.752;9.180;2022-08-14T14:33:59;51.50;14.60
423;DHT22;198;48.752;9.180;2022-08-14T14:36:27;51.10;14.90
423;DHT22;198;48.752;9.180;2022-08-14T14:39:02;50.70;15.00
423;DHT22;198;48.752;9.180;2022-08-14T14:41:30;49.90;15.20
423;DHT22;198;48.752;9.180;2022-08-14T14:43:58;49.60;14.80
423;DHT22;198;48.752;9.180;2022-08-14T14:46:25;48.70;14.90
423;DHT22;198;48.752;9.180;2022-08-14T14:48:53;48.90;15.30
423;DHT22;198;48.752;9.180;2022-08-14T14:51:19;49.00;15.40
423;DHT22;198;48.752;9.180;2022-08-14T14:53:46;49.00;15.30
423;DHT22;198;48.752;9.180;2022-08-14T14:56:12;48.90;15.80
423;DHT22;198;48.752;9.180;2022-08-14T14:58:40;48.50;15.90
423;DHT22;198;48.752;9.180;2022-08-14T15:01:08;48.50;15.40
423;DHT22;198;48.752;9.180;2022-08-14T15:03:35;48.30;15.50
423;DHT22;198;48.752;9.180;2022-08-14T15:06:03;48.00;15.60
423;DHT22;198;48.752;9.180;2022-08-14T15:08:30;48.20;15.80
423;DHT22;198;48.752;9.180;2022-08-14T15:10:58;47.90;15.80
423;DHT22;198;48.752;9.180;2022-08-14T15:13:27;46.60;15.70
423;DHT22;198;48.752;9.180;2022-08-14T15:15:53;45.50;16.50
423;DHT22;198;48.752;9.180;2022-08-14T15:18:20;44.80;17.40
423;DHT22;198;48.752;9.180;2022-08-14T15:20:47;44.20;17.60
423;DHT22;198;48.752;9.180;2022-08-14T15:23:13;43.70;17.20
423;DHT22;198;48.752;9.180;2022-08-14T15:25:40;43.10;17.70
423;DHT22;198;48.752;9.180;2022-08-14T15:28:06;42.60;18.70
423;DHT22;198;48.752;9.180;2022-08-14T15:30:38;42.70;18.10
423;DHT22;198;48.752;9.180;2022-08-14T15:33:04;43.00;17.60
423;DHT22;198;48.752;9.180;2022-08-14T15:35:30;43.20;17.90
423;DHT22;198;48.752;9.180;2022-08-14T15:37:57;43.00;18.10
423;DHT22;198;48.752;9.180;2022-08-14T15:40:28;42.90;17.90
423;DHT22;198;48.752;9.180;2022-08-14T15:42:55;42.90;17.50
423;DHT22;198;48.752;9.180;2022-08-14T15:45:20;42.90;17.70
423;DHT22;198;48.752;9.180;2022-08-14T15:47:47;43.00;18.60
423;DHT22;198;48.752;9.180;2022-08-14T15:50:12;43.10;17.70
423;DHT22;198;48.752;9.180;2022-08-14T15:52:38;43.10;17.70
423;DHT22;198;48.752;9.180;2022-08-14T15:55:10;43.00;17.50
423;DHT22;198;48.752;9.180;2022-08-14T15:57:37;42.50;17.60
423;DHT22;198;48.752;9.180;2022-08-14T16:00:06;41.90;18.10
423;DHT22;198;48.752;9.180;2022-08-14T16:02:50;41.40;18.60
423;DHT22;198;48.752;9.180;2022-08-14T16:05:16;41.10;18.70
423;DHT22;198;48.752;9.180;2022-08-14T16:07:51;40.70;19.00
423;DHT22;198;48.752;9.180;2022-08-14T16:10:17;40.00;18.90
423;DHT22;198;48.752;9.180;2022-08-14T16:12:43;39.40;19.10
423;DHT22;198;48.752;9.180;2022-08-14T16:15:09;39.00;19.30
423;DHT22;198;48.752;9.180;2022-08-14T16:17:36;38.90;19.60
423;DHT22;198;48.752;9.180;2022-08-14T16:20:04;38.70;19.40
423;DHT22;198;48.752;9.180;2022-08-14T16:22:29;38.50;19.50
423;DHT22;198;48.752;9.180;2022-08-14T16:24:56;38.40;19.70
423;DHT22;198;48.752;9.180;2022-08-14T16:27:22;38.10;19.70
423;DHT22;198;48.752;9.180;2022-08-14T16:29:48;37.80;19.80
423;DHT22;198;48.752;9.180;2022-08-14T16:32:14;37.80;20.10
423;DHT22;198;48.752;9.180;2022-08-14T16:34:40;37.80;20.10
423;DHT22;198;48.752;9.180;2022-08-14T16:37:09;37.70;20.40
423;DHT22;198;48.752;9.180;2022-08-14T16:39:37;37.60;20.70
423;DHT22;198;48.752;9.180;2022-08-14T16:42:04;37.40;21.10
423;DHT22;198;48.752;9.180;2022-08-14T16:44:31;37.40;20.80
423;DHT22;198;48.752;9.180;2022-08-14T16:47:08;37.40;20.90
423;DHT22;198;48.752;9.180;2022-08-14T16:49:38;37.50;21.30
423;DHT22;198;48.752;9.180;2022-08-14T16:52:06;37.70;21.40
423;DHT22;198;48.752;9.180;2022-08-14T16:54:31;38.00;21.20
423;DHT22;198;48.752;9.180;2022-08-14T16:57:20;38.20;20.80
423;DHT22;198;48.752;9.180;2022-08-14T16:59:48;38.30;22.50
423;DHT22;198;48.752;9.180;2022-08-14T17:02:14;38.00;23.40
423;DHT22;198;48.752;9.180;2022-08-14T17:04:40;37.40;22.10
423;DHT22;198;48.752;9.180;2022-08-14T17:07:11;36.90;22.00
423;DHT22;198;48.752;9.180;2022-08-14T17:09:43;36.50;24.30
423;DHT22;198;48.752;9.180;2022-08-14T17:12:13;35.80;25.60
423;DHT22;198;48.752;9.180;2022-08-14T17:17:47;34.70;26.80